Lamard, Illinois
Current Conditions -  °F | °C
As of 3:35 PM on Friday 24 Oct 2014 (Local Time) from KFWC Reporting Station
Broken Clouds Broken Clouds  
Wind Chill: 70°   Ceiling: 4000
Heat Index: 70°   Visibility: 10mi
Dew Point: 53°   Wind: 3mph
Humidity: 56%   Direction: 280°W
Pressure: 30.03"   Gusts: NA
Location:  38.4399°N, 88.4246°W
Report Text: KFWC 242035Z AUTO 28003KT 10SM BKN040 BKN046 21/12 A3003 RMK AO1 T02090118
Loading
Personal Weather Stations






























Interactive Weather Map
Tropical Storm Tracking
New forecast layout! Learn more

10-Day Weather Forecast

Advertisements
Track Severe Weather on mobile